Aérodrome :







RETROUVEZ-NOUS SUR...

 
LOGIN :

S'inscrire | Disclaimer

   EN    FR    IT 

 









Légende :    VFR   VFR Marginal   IFR   IFR Intensif   IFR Très Intensif
Visi : 
Plafond : 
>= 8 km
>= 3000ft
5 à 8 km
1000 à 3000 ft
1500m à 5 km
500 à 1000 ft
800 à 1500m
200 à 500 ft
< 800m
< 200 ft
Symboles :   Orages  Brouillard  Fortes neiges  Fortes précipitations  Vent > 20 kt






- Altitude de l'aérodrome : 38 ft
- Code IATA : YMH


CYMH - Mary's Harbour

DERNIER METAR :
  • 210200Z AUTO 27005KT 7SM CLR M19/M24 A2976 RMK SLP079

METARs EXPIRÉS :
  • 210138Z AUTO 28006KT 6SM HZ CLR M18/M23 A2976 RMK SLP080
  • 210129Z AUTO 27008KT 5SM HZ CLR M18/M23 A2976 RMK SLP079
  • 210100Z AUTO 26008KT 9SM CLR M19/M23 A2975 RMK SLP078
  • 210000Z AUTO 22004KT 9SM CLR M19/M24 A2973 RMK SLP071

TAF TAF CYMH
Valide du 21 à 02h jusqu'au 21 à 04h UTC


210138Z 2102/2104 26008KT P6SM FEW040
TEMPO 2102/2104 5SM IC HZ RMK FCST BASED ON AUTO OBS. NXT FCST WILL BE ISSUED AT 210945Z



MET'MAP, la Météo Aéronautique d'un coup d'oeil ! - Copyright ORBIFLY Décembre 2007 - Disclaimer

ORBIFLY MET'MAP TEAM :

Programmation & Développement : Alexandra Zaïnal
Sur une idée originale de : Baudouin d'Aumeries
Assistance à la programmation : Marc-Olivier Méhu
Soutien technique & logistique : Manuel Goepfert

Contact : metmap@orbifly.com




SOURCES & CREDITS :

   NOAA